createdAt,value
2018-12-13T00:01:24.325Z,98322.92
2018-12-13T00:03:53.176Z,98317.94
2018-12-13T00:06:22.213Z,98321.95
2018-12-13T00:08:51.098Z,98323.75
2018-12-13T00:11:20.061Z,98326.39
2018-12-13T00:13:48.792Z,98327.33
2018-12-13T00:16:17.724Z,98322.63
2018-12-13T00:18:46.565Z,98333.03
2018-12-13T00:21:15.606Z,98327.84
2018-12-13T00:23:44.709Z,98321.38
2018-12-13T00:26:13.686Z,98331.28
2018-12-13T00:28:42.764Z,98330.40
2018-12-13T00:31:11.709Z,98333.41
2018-12-13T00:33:40.592Z,98336.45
2018-12-13T00:36:09.608Z,98337.75
2018-12-13T00:38:38.524Z,98338.17
2018-12-13T00:41:07.577Z,98338.98
2018-12-13T00:43:36.552Z,98348.41
2018-12-13T00:46:05.558Z,98352.64
2018-12-13T00:48:34.552Z,98356.67
2018-12-13T00:51:03.453Z,98346.52
2018-12-13T00:53:32.500Z,98350.27
2018-12-13T00:56:01.576Z,98346.29
2018-12-13T00:58:30.563Z,98352.55
2018-12-13T01:01:01.489Z,98343.83
2018-12-13T01:03:31.148Z,98346.77
2018-12-13T01:06:00.179Z,98346.16
2018-12-13T01:08:29.181Z,98346.64
2018-12-13T01:10:58.162Z,98350.77
2018-12-13T01:13:27.176Z,98343.78
2018-12-13T01:15:56.175Z,98342.75
2018-12-13T01:18:25.282Z,98340.53
2018-12-13T01:20:54.275Z,98338.61
2018-12-13T01:23:22.941Z,98343.70
2018-12-13T01:25:51.923Z,98339.87
2018-12-13T01:28:20.905Z,98342.17
2018-12-13T01:30:50.000Z,98337.45
2018-12-13T01:33:19.059Z,98336.98
2018-12-13T01:35:48.084Z,98332.47
2018-12-13T01:38:17.015Z,98340.21
2018-12-13T01:40:45.874Z,98329.92
2018-12-13T01:43:14.882Z,98332.45
2018-12-13T01:45:43.681Z,98332.34
2018-12-13T01:48:12.837Z,98332.90
2018-12-13T01:50:41.808Z,98331.20
2018-12-13T01:53:10.484Z,98328.05
2018-12-13T01:55:39.194Z,98337.89
2018-12-13T01:58:08.547Z,98344.34
2018-12-13T02:00:37.614Z,98335.30
2018-12-13T02:03:06.737Z,98344.28
2018-12-13T02:05:35.782Z,98339.47
2018-12-13T02:08:04.433Z,98344.14
2018-12-13T02:10:33.426Z,98347.47
2018-12-13T02:13:02.462Z,98344.81
2018-12-13T02:15:33.241Z,98344.35
2018-12-13T02:18:02.254Z,98345.13
2018-12-13T02:20:31.328Z,98341.17
2018-12-13T02:23:00.348Z,98334.14
2018-12-13T02:25:29.398Z,98341.85
2018-12-13T02:27:58.562Z,98326.34
2018-12-13T02:30:27.789Z,98332.32
2018-12-13T02:32:56.724Z,98322.03
2018-12-13T02:35:25.661Z,98322.52
2018-12-13T02:37:54.568Z,98322.52
2018-12-13T02:40:23.536Z,98321.89
2018-12-13T02:42:52.716Z,98319.11
2018-12-13T02:45:21.556Z,98304.65
2018-12-13T02:47:50.595Z,98306.70
2018-12-13T02:50:19.677Z,98308.60
2018-12-13T02:52:48.390Z,98306.19
2018-12-13T02:55:17.139Z,98314.77
2018-12-13T02:57:45.951Z,98323.30
2018-12-13T03:00:14.815Z,98320.89
2018-12-13T03:02:43.614Z,98330.28
2018-12-13T03:05:12.626Z,98334.16
2018-12-13T03:07:41.755Z,98333.72
2018-12-13T03:10:10.731Z,98331.81
2018-12-13T03:12:39.711Z,98336.91
2018-12-13T03:15:08.676Z,98344.47
2018-12-13T03:17:37.287Z,98342.71
2018-12-13T03:20:06.978Z,98350.37
2018-12-13T03:22:35.873Z,98346.78
2018-12-13T03:25:04.894Z,98344.27
2018-12-13T03:27:33.927Z,98345.77
2018-12-13T03:30:02.988Z,98348.34
2018-12-13T03:32:32.106Z,98346.62
2018-12-13T03:35:01.304Z,98351.38
2018-12-13T03:37:30.100Z,98353.45
2018-12-13T03:39:58.998Z,98349.42
2018-12-13T03:42:28.042Z,98355.39
2018-12-13T03:44:57.039Z,98360.13
2018-12-13T03:47:25.906Z,98361.49
2018-12-13T03:49:54.793Z,98362.73
2018-12-13T03:52:23.816Z,98362.25
2018-12-13T03:54:52.926Z,98368.18
2018-12-13T03:57:22.083Z,98367.09
2018-12-13T03:59:50.800Z,98371.18
2018-12-13T04:02:19.780Z,98361.82
2018-12-13T04:04:48.652Z,98369.19
2018-12-13T04:07:17.633Z,98353.58
2018-12-13T04:09:46.561Z,98367.73
2018-12-13T04:12:15.733Z,98365.47
2018-12-13T04:14:44.732Z,98369.66
2018-12-13T04:17:13.439Z,98374.84
2018-12-13T04:19:42.150Z,98389.44
2018-12-13T04:22:11.145Z,98393.30
2018-12-13T04:24:40.284Z,98388.11
2018-12-13T04:27:09.277Z,98393.07
2018-12-13T04:29:38.075Z,98400.77
2018-12-13T04:32:06.959Z,98396.95
2018-12-13T04:34:35.859Z,98399.17
2018-12-13T04:37:04.991Z,98396.14
2018-12-13T04:39:34.137Z,98402.60
2018-12-13T04:42:02.806Z,98396.16
2018-12-13T04:44:31.526Z,98395.05
2018-12-13T04:47:00.507Z,98390.59
2018-12-13T04:49:29.627Z,98386.72
2018-12-13T04:51:58.751Z,98388.48
2018-12-13T04:54:27.931Z,98381.02
2018-12-13T04:56:56.862Z,98387.77
2018-12-13T04:59:25.929Z,98383.24
2018-12-13T05:01:54.665Z,98382.38
2018-12-13T05:04:23.641Z,98384.83
2018-12-13T05:06:52.686Z,98386.83
2018-12-13T05:09:21.562Z,98389.05
2018-12-13T05:11:50.501Z,98382.17
2018-12-13T05:14:19.398Z,98389.95
2018-12-13T05:16:48.390Z,98381.91
2018-12-13T05:19:17.097Z,98384.09
2018-12-13T05:21:45.992Z,98380.56
2018-12-13T05:24:15.167Z,98377.11
2018-12-13T05:26:44.228Z,98376.34
2018-12-13T05:29:13.008Z,98373.36
2018-12-13T05:31:41.940Z,98381.55
2018-12-13T05:34:10.692Z,98379.55
2018-12-13T05:36:39.397Z,98377.16
2018-12-13T05:39:09.160Z,98383.70
2018-12-13T05:41:38.367Z,98385.50
2018-12-13T05:44:07.529Z,98384.23
2018-12-13T05:46:36.592Z,98386.84
2018-12-13T05:49:05.543Z,98386.36
2018-12-13T05:51:34.318Z,98390.58
2018-12-13T05:54:03.312Z,98387.17
2018-12-13T05:56:32.150Z,98394.80
2018-12-13T05:59:01.213Z,98395.37
2018-12-13T06:01:30.370Z,98391.04
2018-12-13T06:03:59.454Z,98390.28
2018-12-13T06:06:28.178Z,98383.19
2018-12-13T06:08:56.835Z,98384.91
2018-12-13T06:11:25.825Z,98388.48
2018-12-13T06:13:54.856Z,98389.77
2018-12-13T06:16:24.012Z,98388.05
2018-12-13T06:18:53.118Z,98384.52
2018-12-13T06:21:22.067Z,98383.63
2018-12-13T06:23:50.755Z,98382.72
2018-12-13T06:26:19.779Z,98384.40
2018-12-13T06:28:48.679Z,98389.70
2018-12-13T06:31:17.904Z,98387.92
2018-12-13T06:33:47.032Z,98385.25
2018-12-13T06:36:15.968Z,98386.00
2018-12-13T06:38:44.797Z,98388.13
2018-12-13T06:41:13.842Z,98381.11
2018-12-13T06:43:42.817Z,98386.02
2018-12-13T06:46:11.816Z,98391.50
2018-12-13T06:48:40.725Z,98389.03
2018-12-13T06:51:09.831Z,98381.47
2018-12-13T06:53:38.892Z,98388.20
2018-12-13T06:56:07.932Z,98399.87
2018-12-13T06:58:37.055Z,98392.87
2018-12-13T07:01:06.174Z,98390.05
2018-12-13T07:03:35.222Z,98395.94
2018-12-13T07:06:04.227Z,98399.81
2018-12-13T07:08:33.255Z,98394.33
2018-12-13T07:11:02.209Z,98398.31
2018-12-13T07:13:31.334Z,98401.64
2018-12-13T07:16:00.230Z,98393.19
2018-12-13T07:18:29.048Z,98399.39
2018-12-13T07:20:58.028Z,98398.90
2018-12-13T07:23:27.145Z,98402.25
2018-12-13T07:25:56.258Z,98398.02
2018-12-13T07:28:25.182Z,98391.13
2018-12-13T07:30:54.193Z,98389.48
2018-12-13T07:33:23.372Z,98393.89
2018-12-13T07:35:52.459Z,98388.30
2018-12-13T07:38:21.456Z,98394.48
2018-12-13T07:40:50.494Z,98392.39
2018-12-13T07:43:19.540Z,98393.81
2018-12-13T07:45:48.500Z,98396.56
2018-12-13T07:48:17.472Z,98393.18
2018-12-13T07:50:46.411Z,98395.84
2018-12-13T07:53:15.346Z,98388.88
2018-12-13T07:55:44.566Z,98383.63
2018-12-13T07:58:13.563Z,98383.70
2018-12-13T08:00:42.344Z,98376.00
2018-12-13T08:03:11.263Z,98382.09
2018-12-13T08:05:40.340Z,98384.40
2018-12-13T08:08:09.489Z,98381.91
2018-12-13T08:10:38.365Z,98377.69
2018-12-13T08:13:07.441Z,98380.77
2018-12-13T08:15:36.177Z,98378.16
2018-12-13T08:18:05.344Z,98375.56
2018-12-13T08:20:34.335Z,98369.55
2018-12-13T08:23:03.377Z,98369.99
2018-12-13T08:25:32.310Z,98371.21
2018-12-13T08:28:02.005Z,98365.88
2018-12-13T08:30:30.932Z,98371.22
2018-12-13T08:32:59.929Z,98366.42
2018-12-13T08:35:28.916Z,98373.64
2018-12-13T08:37:57.948Z,98368.56
2018-12-13T08:40:27.087Z,98367.67
2018-12-13T08:42:55.848Z,98369.31
2018-12-13T08:45:24.935Z,98373.61
2018-12-13T08:47:54.079Z,98368.86
2018-12-13T08:50:22.986Z,98367.26
2018-12-13T08:52:52.199Z,98369.42
2018-12-13T08:55:21.251Z,98369.57
2018-12-13T08:57:50.159Z,98363.89
2018-12-13T09:00:18.804Z,98364.06
2018-12-13T09:02:47.731Z,98362.44
2018-12-13T09:05:16.699Z,98354.80
2018-12-13T09:07:45.815Z,98352.34
2018-12-13T09:10:14.784Z,98342.70
2018-12-13T09:12:43.726Z,98339.59
2018-12-13T09:15:12.776Z,98334.47
2018-12-13T09:17:41.777Z,98331.96
2018-12-13T09:20:10.812Z,98332.17
2018-12-13T09:22:39.784Z,98319.34
2018-12-13T09:25:08.737Z,98328.39
2018-12-13T09:27:37.859Z,98324.91
2018-12-13T09:30:07.471Z,98319.67
2018-12-13T09:32:36.372Z,98312.36
2018-12-13T09:35:06.220Z,98311.27
2018-12-13T09:37:35.279Z,98305.94
2018-12-13T09:40:04.756Z,98306.63
2018-12-13T09:42:33.663Z,98303.04
2018-12-13T09:45:02.619Z,98301.91
2018-12-13T09:47:31.687Z,98293.81
2018-12-13T09:50:00.741Z,98292.14
2018-12-13T09:52:29.756Z,98299.48
2018-12-13T09:55:05.410Z,98299.14
2018-12-13T09:57:34.355Z,98289.49
2018-12-13T10:00:04.126Z,98288.96
2018-12-13T10:02:33.359Z,98283.47
2018-12-13T10:05:02.412Z,98283.79
2018-12-13T10:07:31.458Z,98283.98
2018-12-13T10:10:00.454Z,98283.72
2018-12-13T10:12:29.087Z,98282.25
2018-12-13T10:14:58.025Z,98275.79
2018-12-13T10:17:27.109Z,98281.66
2018-12-13T10:19:56.115Z,98280.78
2018-12-13T10:22:25.216Z,98284.28
2018-12-13T10:24:54.063Z,98277.34
2018-12-13T10:27:23.092Z,98269.31
2018-12-13T10:29:52.229Z,98264.18
2018-12-13T10:32:21.288Z,98257.88
2018-12-13T10:34:50.526Z,98254.55
2018-12-13T10:37:19.553Z,98254.73
2018-12-13T10:39:48.593Z,98247.42
2018-12-13T10:42:17.812Z,98244.48
2018-12-13T10:44:46.672Z,98235.92
2018-12-13T10:47:15.611Z,98230.84
2018-12-13T10:49:44.671Z,98238.45
2018-12-13T10:52:13.448Z,98239.18
2018-12-13T10:54:42.504Z,98244.12
2018-12-13T10:57:11.246Z,98242.67
2018-12-13T10:59:40.284Z,98241.03
2018-12-13T11:02:14.533Z,98236.09
2018-12-13T11:04:43.740Z,98230.92
2018-12-13T11:07:12.586Z,98231.52
2018-12-13T11:09:41.614Z,98222.47
2018-12-13T11:12:10.672Z,98218.63
2018-12-13T11:14:39.717Z,98219.67
2018-12-13T11:17:08.590Z,98219.55
2018-12-13T11:19:37.285Z,98215.94
2018-12-13T11:22:06.231Z,98213.20
2018-12-13T11:24:35.326Z,98211.83
2018-12-13T11:28:12.680Z,98206.50
2018-12-13T11:30:41.727Z,98210.56
2018-12-13T11:33:10.654Z,98196.19
2018-12-13T11:35:39.603Z,98200.10
2018-12-13T11:38:08.670Z,98192.95
2018-12-13T11:40:37.734Z,98195.34
2018-12-13T11:43:06.784Z,98183.62
2018-12-13T11:45:35.691Z,98176.62
2018-12-13T11:48:04.872Z,98172.83
2018-12-13T11:50:34.110Z,98178.95
2018-12-13T11:53:03.222Z,98172.71
2018-12-13T11:55:34.168Z,98174.80
2018-12-13T11:58:03.825Z,98178.53
2018-12-13T12:00:32.853Z,98170.54
2018-12-13T12:03:02.625Z,98169.92
2018-12-13T12:05:31.434Z,98173.88
2018-12-13T12:08:00.499Z,98168.47
2018-12-13T12:10:29.511Z,98173.39
2018-12-13T12:12:58.629Z,98169.73
2018-12-13T12:15:27.712Z,98164.00
2018-12-13T12:17:56.533Z,98163.94
2018-12-13T12:20:25.606Z,98165.95
2018-12-13T12:22:54.682Z,98154.80
2018-12-13T12:25:23.740Z,98153.33
2018-12-13T12:27:52.849Z,98151.67
2018-12-13T12:30:21.533Z,98155.55
2018-12-13T12:32:50.512Z,98162.06
2018-12-13T12:35:19.443Z,98163.03
2018-12-13T12:37:48.454Z,98159.16
2018-12-13T12:40:17.125Z,98162.53
2018-12-13T12:42:46.298Z,98163.92
2018-12-13T12:45:15.436Z,98168.56
2018-12-13T12:47:44.373Z,98161.20
2018-12-13T12:50:13.495Z,98159.27
2018-12-13T12:52:42.656Z,98165.89
2018-12-13T12:55:11.701Z,98167.33
2018-12-13T12:57:40.640Z,98172.08
2018-12-13T13:00:10.991Z,98168.43
2018-12-13T13:02:40.014Z,98169.09
2018-12-13T13:05:09.152Z,98172.66
2018-12-13T13:07:38.164Z,98169.17
2018-12-13T13:10:08.048Z,98175.48
2018-12-13T13:12:36.767Z,98175.48
2018-12-13T13:15:05.903Z,98169.93
2018-12-13T13:17:34.732Z,98172.44
2018-12-13T13:20:03.787Z,98177.76
2018-12-13T13:22:32.989Z,98184.88
2018-12-13T13:25:02.115Z,98180.75
2018-12-13T13:27:31.224Z,98185.71
2018-12-13T13:30:00.083Z,98180.70
2018-12-13T13:32:28.924Z,98185.08
2018-12-13T13:34:58.827Z,98188.66
2018-12-13T13:37:27.586Z,98185.29
2018-12-13T13:39:56.521Z,98185.66
2018-12-13T13:42:25.576Z,98188.33
2018-12-13T13:44:58.744Z,98190.62
2018-12-13T13:47:27.773Z,98193.91
2018-12-13T13:49:56.881Z,98194.33
2018-12-13T13:52:26.009Z,98198.05
2018-12-13T13:54:55.152Z,98197.00
2018-12-13T13:57:24.172Z,98196.02
2018-12-13T13:59:53.134Z,98195.73
2018-12-13T14:02:21.858Z,98199.28
2018-12-13T14:04:50.804Z,98197.97
2018-12-13T14:07:19.953Z,98197.97
2018-12-13T14:09:48.977Z,98199.71
2018-12-13T14:12:17.784Z,98203.20
2018-12-13T14:14:46.731Z,98201.13
2018-12-13T14:17:15.571Z,98198.16
2018-12-13T14:19:44.664Z,98199.42
2018-12-13T14:22:13.691Z,98196.91
2018-12-13T14:24:42.678Z,98193.54
2018-12-13T14:27:11.795Z,98193.23
2018-12-13T14:29:40.723Z,98195.89
2018-12-13T14:32:09.745Z,98190.19
2018-12-13T14:34:38.611Z,98198.90
2018-12-13T14:37:07.384Z,98208.27
2018-12-13T14:39:36.057Z,98203.65
2018-12-13T14:42:05.333Z,98208.91
2018-12-13T14:44:34.519Z,98205.03
2018-12-13T14:47:03.777Z,98202.48
2018-12-13T14:49:33.483Z,98203.42
2018-12-13T14:52:02.217Z,98203.83
2018-12-13T14:54:31.074Z,98202.10
2018-12-13T14:57:00.060Z,98202.60
2018-12-13T14:59:29.976Z,98200.91
2018-12-13T15:01:58.957Z,98203.13
2018-12-13T15:04:29.016Z,98198.42
2018-12-13T15:06:57.812Z,98189.79
2018-12-13T15:09:26.517Z,98196.30
2018-12-13T15:11:55.348Z,98195.01
2018-12-13T15:14:24.147Z,98191.99
2018-12-13T15:16:53.333Z,98185.48
2018-12-13T15:19:22.299Z,98188.58
2018-12-13T15:21:51.389Z,98189.45
2018-12-13T15:24:20.504Z,98188.23
2018-12-13T15:26:49.559Z,98183.42
2018-12-13T15:29:18.547Z,98184.22
2018-12-13T15:31:47.468Z,98179.00
2018-12-13T15:34:16.529Z,98179.47
2018-12-13T15:36:45.571Z,98179.51
2018-12-13T15:39:14.608Z,98180.39
2018-12-13T15:41:43.282Z,98178.30
2018-12-13T15:44:12.277Z,98178.45
2018-12-13T15:46:41.212Z,98179.41
2018-12-13T15:49:10.219Z,98178.56
2018-12-13T15:51:39.143Z,98180.39
2018-12-13T15:54:08.169Z,98181.30
2018-12-13T15:56:37.171Z,98186.13
2018-12-13T15:59:06.620Z,98187.45
2018-12-13T16:01:35.474Z,98180.55
2018-12-13T16:04:04.551Z,98181.85
2018-12-13T16:06:33.508Z,98187.05
2018-12-13T16:09:02.405Z,98184.44
2018-12-13T16:11:31.364Z,98186.19
2018-12-13T16:14:00.285Z,98182.73
2018-12-13T16:16:29.228Z,98180.59
2018-12-13T16:18:58.163Z,98182.32
2018-12-13T16:21:26.892Z,98188.80
2018-12-13T16:23:55.922Z,98184.89
2018-12-13T16:26:24.939Z,98187.50
2018-12-13T16:28:54.000Z,98189.66
2018-12-13T16:31:23.049Z,98181.88
2018-12-13T16:33:52.067Z,98185.31
2018-12-13T16:36:21.903Z,98183.16
2018-12-13T16:38:50.932Z,98187.02
2018-12-13T16:41:19.910Z,98178.81
2018-12-13T16:43:49.030Z,98182.70
2018-12-13T16:46:18.272Z,98190.45
2018-12-13T16:48:47.205Z,98187.86
2018-12-13T16:51:16.180Z,98190.03
2018-12-13T16:53:45.184Z,98193.05
2018-12-13T16:56:14.933Z,98190.00
2018-12-13T16:58:44.197Z,98180.09
2018-12-13T17:01:13.251Z,98183.07
2018-12-13T17:03:42.807Z,98183.53
2018-12-13T17:06:11.844Z,98183.95
2018-12-13T17:08:41.049Z,98178.77
2018-12-13T17:11:10.088Z,98183.03
2018-12-13T17:13:39.928Z,98183.45
2018-12-13T17:16:10.007Z,98182.98
2018-12-13T17:18:39.204Z,98184.74
2018-12-13T17:21:08.295Z,98185.16
2018-12-13T17:23:37.241Z,98187.29
2018-12-13T17:26:06.120Z,98185.57
2018-12-13T17:28:34.916Z,98192.46
2018-12-13T17:31:04.005Z,98190.70
2018-12-13T17:33:33.016Z,98194.63
2018-12-13T17:36:01.901Z,98190.75
2018-12-13T17:38:30.838Z,98193.34
2018-12-13T17:40:59.479Z,98207.98
2018-12-13T17:43:28.406Z,98205.05
2018-12-13T17:45:57.452Z,98210.27
2018-12-13T17:48:26.458Z,98218.91
2018-12-13T17:50:56.024Z,98218.03
2018-12-13T17:53:24.983Z,98216.73
2018-12-13T17:55:54.192Z,98216.33
2018-12-13T17:58:23.260Z,98222.41
2018-12-13T18:00:52.488Z,98221.12
2018-12-13T18:03:21.440Z,98224.13
2018-12-13T18:05:50.590Z,98222.38
2018-12-13T18:08:19.623Z,98222.83
2018-12-13T18:10:48.745Z,98222.41
2018-12-13T18:13:17.584Z,98225.84
2018-12-13T18:15:46.491Z,98232.73
2018-12-13T18:18:15.333Z,98236.17
2018-12-13T18:20:44.390Z,98232.73
2018-12-13T18:23:13.336Z,98236.62
2018-12-13T18:25:42.422Z,98228.02
2018-12-13T18:28:11.669Z,98225.42
2018-12-13T18:30:40.675Z,98223.20
2018-12-13T18:33:09.459Z,98224.13
2018-12-13T18:35:38.747Z,98221.15
2018-12-13T18:38:07.656Z,98223.31
2018-12-13T18:40:36.796Z,98221.17
2018-12-13T18:43:05.801Z,98223.28
2018-12-13T18:45:37.763Z,98221.99
2018-12-13T18:48:07.437Z,98216.36
2018-12-13T18:50:36.143Z,98222.41
2018-12-13T18:53:05.303Z,98216.81
2018-12-13T18:55:34.602Z,98223.31
2018-12-13T18:58:03.563Z,98215.09
2018-12-13T19:00:32.300Z,98208.16
2018-12-13T19:03:01.440Z,98204.31
2018-12-13T19:05:30.516Z,98203.43
2018-12-13T19:07:59.484Z,98201.30
2018-12-13T19:10:28.592Z,98211.63
2018-12-13T19:12:57.782Z,98198.25
2018-12-13T19:15:26.959Z,98206.05
2018-12-13T19:17:56.127Z,98203.88
2018-12-13T19:20:24.872Z,98201.75
2018-12-13T19:22:54.847Z,98204.34
2018-12-13T19:25:23.815Z,98200.90
2018-12-13T19:27:52.898Z,98200.90
2018-12-13T19:30:21.935Z,98198.28
2018-12-13T19:32:51.055Z,98208.67
2018-12-13T19:35:20.195Z,98210.83
2018-12-13T19:37:49.036Z,98210.39
2018-12-13T19:40:17.884Z,98210.37
2018-12-13T19:42:46.964Z,98222.93
2018-12-13T19:45:15.703Z,98224.22
2018-12-13T19:47:44.813Z,98230.26
2018-12-13T19:50:13.963Z,98234.16
2018-12-13T19:52:42.779Z,98241.06
2018-12-13T19:55:12.330Z,98247.09
2018-12-13T19:57:41.228Z,98239.28
2018-12-13T20:00:11.552Z,98231.52
2018-12-13T20:02:40.690Z,98230.19
2018-12-13T20:05:09.736Z,98225.87
2018-12-13T20:07:39.028Z,98227.65
2018-12-13T20:10:09.197Z,98231.56
2018-12-13T20:12:38.011Z,98228.97
2018-12-13T20:15:07.712Z,98225.50
2018-12-13T20:17:36.752Z,98220.73
2018-12-13T20:20:06.241Z,98217.27
2018-12-13T20:22:35.036Z,98205.17
2018-12-13T20:25:04.028Z,98209.53
2018-12-13T20:27:32.995Z,98204.33
2018-12-13T20:30:02.179Z,98212.08
2018-12-13T20:32:31.528Z,98212.53
2018-12-13T20:35:00.974Z,98209.51
2018-12-13T20:37:29.760Z,98192.26
2018-12-13T20:39:58.557Z,98189.65
2018-12-13T20:42:28.362Z,98197.41
2018-12-13T20:44:57.508Z,98203.86
2018-12-13T20:47:26.390Z,98214.19
2018-12-13T20:49:55.337Z,98213.34
2018-12-13T20:52:24.253Z,98211.17
2018-12-13T20:54:53.099Z,98213.34
2018-12-13T20:57:22.062Z,98210.30
2018-12-13T20:59:50.966Z,98208.13
2018-12-13T21:02:20.046Z,98213.31
2018-12-13T21:04:49.032Z,98214.19
2018-12-13T21:07:23.068Z,98217.68
2018-12-13T21:09:52.642Z,98223.28
2018-12-13T21:12:21.905Z,98225.00
2018-12-13T21:14:51.035Z,98230.67
2018-12-13T21:17:20.048Z,98215.12
2018-12-13T21:19:49.277Z,98210.81
2018-12-13T21:22:18.476Z,98211.27
2018-12-13T21:24:47.653Z,98212.98
2018-12-13T21:27:16.850Z,98223.36
2018-12-13T21:29:45.543Z,98224.66
2018-12-13T21:32:14.640Z,98231.15
2018-12-13T21:34:43.684Z,98234.16
2018-12-13T21:37:12.686Z,98239.37
2018-12-13T21:39:41.775Z,98237.20
2018-12-13T21:42:10.525Z,98243.69
2018-12-13T21:44:39.454Z,98247.13
2018-12-13T21:47:08.177Z,98247.59
2018-12-13T21:49:37.273Z,98249.73
2018-12-13T21:52:06.192Z,98245.00
2018-12-13T21:54:35.431Z,98254.05
2018-12-13T21:57:04.420Z,98254.05
2018-12-13T21:59:33.561Z,98250.61
2018-12-13T22:02:02.497Z,98241.52
2018-12-13T22:04:31.357Z,98238.91
2018-12-13T22:07:00.388Z,98240.63
2018-12-13T22:09:29.418Z,98242.36
2018-12-13T22:11:58.537Z,98226.33
2018-12-13T22:14:27.566Z,98226.75
2018-12-13T22:16:56.803Z,98225.00
2018-12-13T22:19:25.783Z,98222.80
2018-12-13T22:21:54.555Z,98218.91
2018-12-13T22:24:23.869Z,98213.34
2018-12-13T22:26:57.314Z,98208.16
2018-12-13T22:29:26.099Z,98202.08
2018-12-13T22:31:55.149Z,98201.62
2018-12-13T22:34:24.417Z,98205.46
2018-12-13T22:36:53.748Z,98204.98
2018-12-13T22:39:22.696Z,98197.27
2018-12-13T22:41:51.725Z,98208.87
2018-12-13T22:44:20.739Z,98219.16
2018-12-13T22:46:49.692Z,98229.45
2018-12-13T22:49:18.483Z,98226.31
2018-12-13T22:51:47.465Z,98213.30
2018-12-13T22:54:16.511Z,98219.28
2018-12-13T22:56:45.457Z,98217.52
2018-12-13T22:59:14.265Z,98222.28
2018-12-13T23:01:43.428Z,98224.80
2018-12-13T23:04:12.106Z,98229.12
2018-12-13T23:06:41.154Z,98226.45
2018-12-13T23:09:10.212Z,98224.37
2018-12-13T23:11:39.149Z,98224.38
2018-12-13T23:14:08.257Z,98214.50
2018-12-13T23:16:37.213Z,98209.28
2018-12-13T23:19:06.283Z,98198.94
2018-12-13T23:21:35.382Z,98197.23
2018-12-13T23:24:04.204Z,98197.56
2018-12-13T23:26:33.249Z,98196.89
2018-12-13T23:29:02.213Z,98190.04
2018-12-13T23:31:31.303Z,98181.78
2018-12-13T23:34:00.329Z,98176.94
2018-12-13T23:36:29.332Z,98169.16
2018-12-13T23:38:57.997Z,98176.85
2018-12-13T23:41:26.826Z,98185.89
2018-12-13T23:43:55.513Z,98187.59
2018-12-13T23:46:24.315Z,98184.13
2018-12-13T23:48:53.316Z,98206.96
2018-12-13T23:51:22.425Z,98218.59
2018-12-13T23:53:51.389Z,98212.55
2018-12-13T23:56:20.475Z,98211.25
2018-12-13T23:58:49.421Z,98200.02
